sensor_id;sensor_type;location;lat;lon;timestamp;P1;durP1;ratioP1;P2;durP2;ratioP2
44516;SDS011;30223;17.182;-96.766;2023-04-25T00:02:11;7.93;;;5.72;;
44516;SDS011;30223;17.182;-96.766;2023-04-25T00:04:38;6.13;;;4.95;;
44516;SDS011;30223;17.182;-96.766;2023-04-25T00:07:05;6.47;;;4.72;;
44516;SDS011;30223;17.182;-96.766;2023-04-25T00:09:32;6.43;;;5.55;;
44516;SDS011;30223;17.182;-96.766;2023-04-25T00:11:58;7.03;;;5.55;;
44516;SDS011;30223;17.182;-96.766;2023-04-25T00:14:26;8.55;;;5.43;;
44516;SDS011;30223;17.182;-96.766;2023-04-25T00:16:53;6.10;;;4.85;;
44516;SDS011;30223;17.182;-96.766;2023-04-25T00:19:20;6.85;;;5.38;;
44516;SDS011;30223;17.182;-96.766;2023-04-25T00:21:47;5.35;;;4.75;;
44516;SDS011;30223;17.182;-96.766;2023-04-25T00:24:14;7.07;;;5.50;;
44516;SDS011;30223;17.182;-96.766;2023-04-25T00:26:41;6.07;;;4.53;;
44516;SDS011;30223;17.182;-96.766;2023-04-25T00:29:07;7.35;;;4.75;;
44516;SDS011;30223;17.182;-96.766;2023-04-25T00:31:34;5.20;;;4.55;;
44516;SDS011;30223;17.182;-96.766;2023-04-25T00:34:01;5.43;;;4.90;;
44516;SDS011;30223;17.182;-96.766;2023-04-25T00:36:28;6.93;;;4.95;;
44516;SDS011;30223;17.182;-96.766;2023-04-25T00:38:55;8.23;;;5.38;;
44516;SDS011;30223;17.182;-96.766;2023-04-25T00:41:22;7.47;;;4.82;;
44516;SDS011;30223;17.182;-96.766;2023-04-25T00:43:50;6.60;;;5.55;;
44516;SDS011;30223;17.182;-96.766;2023-04-25T00:46:18;7.15;;;4.78;;
44516;SDS011;30223;17.182;-96.766;2023-04-25T00:48:45;6.75;;;5.93;;
44516;SDS011;30223;17.182;-96.766;2023-04-25T00:51:16;7.28;;;5.93;;
44516;SDS011;30223;17.182;-96.766;2023-04-25T00:53:45;8.80;;;6.35;;
44516;SDS011;30223;17.182;-96.766;2023-04-25T00:56:14;6.57;;;4.75;;
44516;SDS011;30223;17.182;-96.766;2023-04-25T00:58:42;5.25;;;4.72;;
44516;SDS011;30223;17.182;-96.766;2023-04-25T01:01:09;5.47;;;4.35;;
44516;SDS011;30223;17.182;-96.766;2023-04-25T01:03:38;5.43;;;4.87;;
44516;SDS011;30223;17.182;-96.766;2023-04-25T01:06:08;5.47;;;4.93;;
44516;SDS011;30223;17.182;-96.766;2023-04-25T01:08:37;5.40;;;4.55;;
44516;SDS011;30223;17.182;-96.766;2023-04-25T01:11:04;6.68;;;4.80;;
44516;SDS011;30223;17.182;-96.766;2023-04-25T01:13:32;7.30;;;4.82;;
44516;SDS011;30223;17.182;-96.766;2023-04-25T01:15:59;7.10;;;4.95;;
44516;SDS011;30223;17.182;-96.766;2023-04-25T01:18:26;5.68;;;4.53;;
44516;SDS011;30223;17.182;-96.766;2023-04-25T01:20:54;7.40;;;5.13;;
44516;SDS011;30223;17.182;-96.766;2023-04-25T01:23:21;6.35;;;5.30;;
44516;SDS011;30223;17.182;-96.766;2023-04-25T01:25:49;5.88;;;5.18;;
44516;SDS011;30223;17.182;-96.766;2023-04-25T01:28:16;6.30;;;5.13;;
44516;SDS011;30223;17.182;-96.766;2023-04-25T01:30:43;6.63;;;5.10;;
44516;SDS011;30223;17.182;-96.766;2023-04-25T01:33:10;5.93;;;4.20;;
44516;SDS011;30223;17.182;-96.766;2023-04-25T01:35:39;6.03;;;5.10;;
44516;SDS011;30223;17.182;-96.766;2023-04-25T01:38:06;5.60;;;4.88;;
44516;SDS011;30223;17.182;-96.766;2023-04-25T01:40:33;7.13;;;4.65;;
44516;SDS011;30223;17.182;-96.766;2023-04-25T01:43:02;6.50;;;5.43;;
44516;SDS011;30223;17.182;-96.766;2023-04-25T01:45:29;5.90;;;5.07;;
44516;SDS011;30223;17.182;-96.766;2023-04-25T01:47:56;6.53;;;4.97;;
44516;SDS011;30223;17.182;-96.766;2023-04-25T01:50:24;5.97;;;4.38;;
44516;SDS011;30223;17.182;-96.766;2023-04-25T01:52:51;6.40;;;5.53;;
44516;SDS011;30223;17.182;-96.766;2023-04-25T01:55:19;5.60;;;4.68;;
44516;SDS011;30223;17.182;-96.766;2023-04-25T01:57:46;5.97;;;4.45;;
44516;SDS011;30223;17.182;-96.766;2023-04-25T02:00:13;6.15;;;4.65;;
44516;SDS011;30223;17.182;-96.766;2023-04-25T02:02:40;5.97;;;4.63;;
44516;SDS011;30223;17.182;-96.766;2023-04-25T02:05:07;8.90;;;5.55;;
44516;SDS011;30223;17.182;-96.766;2023-04-25T02:07:33;5.63;;;5.03;;
44516;SDS011;30223;17.182;-96.766;2023-04-25T02:10:00;5.90;;;4.75;;
44516;SDS011;30223;17.182;-96.766;2023-04-25T02:12:27;5.38;;;4.82;;
44516;SDS011;30223;17.182;-96.766;2023-04-25T02:14:54;8.40;;;5.20;;
44516;SDS011;30223;17.182;-96.766;2023-04-25T02:17:24;5.82;;;5.22;;
44516;SDS011;30223;17.182;-96.766;2023-04-25T02:19:51;9.77;;;5.53;;
44516;SDS011;30223;17.182;-96.766;2023-04-25T02:22:18;5.70;;;4.60;;
44516;SDS011;30223;17.182;-96.766;2023-04-25T02:24:45;7.63;;;5.15;;
44516;SDS011;30223;17.182;-96.766;2023-04-25T02:27:12;5.85;;;4.72;;
44516;SDS011;30223;17.182;-96.766;2023-04-25T02:29:39;6.20;;;4.65;;
44516;SDS011;30223;17.182;-96.766;2023-04-25T02:32:05;6.97;;;4.45;;
44516;SDS011;30223;17.182;-96.766;2023-04-25T02:34:35;5.28;;;4.68;;
44516;SDS011;30223;17.182;-96.766;2023-04-25T02:37:02;6.75;;;4.72;;
44516;SDS011;30223;17.182;-96.766;2023-04-25T02:39:28;6.03;;;5.20;;
44516;SDS011;30223;17.182;-96.766;2023-04-25T02:41:55;7.25;;;5.38;;
44516;SDS011;30223;17.182;-96.766;2023-04-25T02:44:22;5.78;;;4.13;;
44516;SDS011;30223;17.182;-96.766;2023-04-25T02:46:52;6.25;;;4.80;;
44516;SDS011;30223;17.182;-96.766;2023-04-25T02:49:18;6.82;;;4.70;;
44516;SDS011;30223;17.182;-96.766;2023-04-25T02:51:45;5.53;;;4.45;;
44516;SDS011;30223;17.182;-96.766;2023-04-25T02:54:12;4.85;;;4.32;;
44516;SDS011;30223;17.182;-96.766;2023-04-25T02:56:39;5.18;;;4.30;;
44516;SDS011;30223;17.182;-96.766;2023-04-25T02:59:05;5.38;;;4.13;;
44516;SDS011;30223;17.182;-96.766;2023-04-25T03:01:32;6.55;;;4.65;;
44516;SDS011;30223;17.182;-96.766;2023-04-25T03:03:59;5.35;;;4.32;;
44516;SDS011;30223;17.182;-96.766;2023-04-25T03:06:25;5.53;;;4.35;;
44516;SDS011;30223;17.182;-96.766;2023-04-25T03:08:52;5.32;;;4.10;;
44516;SDS011;30223;17.182;-96.766;2023-04-25T03:11:19;6.40;;;4.20;;
44516;SDS011;30223;17.182;-96.766;2023-04-25T03:13:46;5.82;;;4.53;;
44516;SDS011;30223;17.182;-96.766;2023-04-25T03:16:12;6.03;;;4.50;;
44516;SDS011;30223;17.182;-96.766;2023-04-25T03:18:39;6.13;;;4.80;;
44516;SDS011;30223;17.182;-96.766;2023-04-25T03:21:06;4.68;;;4.10;;
44516;SDS011;30223;17.182;-96.766;2023-04-25T03:23:33;5.75;;;4.38;;
44516;SDS011;30223;17.182;-96.766;2023-04-25T03:25:59;4.82;;;4.18;;
44516;SDS011;30223;17.182;-96.766;2023-04-25T03:28:26;4.05;;;3.53;;
44516;SDS011;30223;17.182;-96.766;2023-04-25T03:30:53;5.45;;;3.97;;
44516;SDS011;30223;17.182;-96.766;2023-04-25T03:33:20;7.18;;;4.43;;
44516;SDS011;30223;17.182;-96.766;2023-04-25T03:35:47;5.45;;;4.20;;
44516;SDS011;30223;17.182;-96.766;2023-04-25T03:38:15;5.57;;;4.88;;
44516;SDS011;30223;17.182;-96.766;2023-04-25T03:40:42;5.03;;;4.28;;
44516;SDS011;30223;17.182;-96.766;2023-04-25T03:43:09;4.97;;;3.72;;
44516;SDS011;30223;17.182;-96.766;2023-04-25T03:45:36;4.43;;;3.95;;
44516;SDS011;30223;17.182;-96.766;2023-04-25T03:48:03;5.03;;;4.10;;
44516;SDS011;30223;17.182;-96.766;2023-04-25T03:50:30;7.82;;;4.35;;
44516;SDS011;30223;17.182;-96.766;2023-04-25T03:52:56;4.90;;;3.90;;
44516;SDS011;30223;17.182;-96.766;2023-04-25T03:55:23;4.28;;;3.47;;
44516;SDS011;30223;17.182;-96.766;2023-04-25T03:57:50;6.72;;;4.50;;
44516;SDS011;30223;17.182;-96.766;2023-04-25T04:00:17;3.58;;;3.28;;
44516;SDS011;30223;17.182;-96.766;2023-04-25T04:02:43;5.63;;;4.88;;
44516;SDS011;30223;17.182;-96.766;2023-04-25T04:05:10;7.47;;;3.80;;
44516;SDS011;30223;17.182;-96.766;2023-04-25T04:07:37;5.10;;;4.00;;
44516;SDS011;30223;17.182;-96.766;2023-04-25T04:10:06;4.97;;;3.83;;
44516;SDS011;30223;17.182;-96.766;2023-04-25T04:12:33;6.35;;;4.20;;
44516;SDS011;30223;17.182;-96.766;2023-04-25T04:15:01;3.83;;;3.35;;
44516;SDS011;30223;17.182;-96.766;2023-04-25T04:17:29;6.30;;;4.30;;
44516;SDS011;30223;17.182;-96.766;2023-04-25T04:19:56;4.80;;;3.78;;
44516;SDS011;30223;17.182;-96.766;2023-04-25T04:22:23;5.30;;;4.00;;
44516;SDS011;30223;17.182;-96.766;2023-04-25T04:24:50;4.13;;;3.72;;
44516;SDS011;30223;17.182;-96.766;2023-04-25T04:27:17;4.22;;;3.83;;
44516;SDS011;30223;17.182;-96.766;2023-04-25T04:29:45;4.50;;;3.75;;
44516;SDS011;30223;17.182;-96.766;2023-04-25T04:32:12;4.53;;;3.80;;
44516;SDS011;30223;17.182;-96.766;2023-04-25T04:34:39;4.90;;;3.53;;
44516;SDS011;30223;17.182;-96.766;2023-04-25T04:37:06;4.80;;;3.85;;
44516;SDS011;30223;17.182;-96.766;2023-04-25T04:39:33;5.25;;;3.88;;
44516;SDS011;30223;17.182;-96.766;2023-04-25T04:42:00;5.00;;;3.72;;
44516;SDS011;30223;17.182;-96.766;2023-04-25T04:44:29;3.58;;;3.28;;
44516;SDS011;30223;17.182;-96.766;2023-04-25T04:46:58;5.07;;;3.42;;
44516;SDS011;30223;17.182;-96.766;2023-04-25T04:49:25;4.38;;;3.20;;
44516;SDS011;30223;17.182;-96.766;2023-04-25T04:51:51;3.92;;;3.33;;
44516;SDS011;30223;17.182;-96.766;2023-04-25T04:54:19;9.45;;;3.72;;
44516;SDS011;30223;17.182;-96.766;2023-04-25T04:56:46;4.82;;;3.17;;
44516;SDS011;30223;17.182;-96.766;2023-04-25T04:59:13;4.40;;;3.08;;
44516;SDS011;30223;17.182;-96.766;2023-04-25T05:01:40;3.72;;;3.40;;
44516;SDS011;30223;17.182;-96.766;2023-04-25T05:04:06;4.53;;;3.55;;
44516;SDS011;30223;17.182;-96.766;2023-04-25T05:06:33;8.45;;;3.67;;
44516;SDS011;30223;17.182;-96.766;2023-04-25T05:09:00;3.53;;;3.30;;
44516;SDS011;30223;17.182;-96.766;2023-04-25T05:11:27;3.33;;;3.03;;
44516;SDS011;30223;17.182;-96.766;2023-04-25T05:13:53;4.43;;;3.67;;
44516;SDS011;30223;17.182;-96.766;2023-04-25T05:16:20;6.38;;;3.60;;
44516;SDS011;30223;17.182;-96.766;2023-04-25T05:18:47;3.60;;;3.30;;
44516;SDS011;30223;17.182;-96.766;2023-04-25T05:21:14;4.88;;;3.85;;
44516;SDS011;30223;17.182;-96.766;2023-04-25T05:23:41;3.97;;;3.13;;
44516;SDS011;30223;17.182;-96.766;2023-04-25T05:26:08;3.47;;;3.10;;
44516;SDS011;30223;17.182;-96.766;2023-04-25T05:28:42;4.18;;;3.10;;
44516;SDS011;30223;17.182;-96.766;2023-04-25T05:31:09;4.47;;;3.95;;
44516;SDS011;30223;17.182;-96.766;2023-04-25T05:33:36;5.97;;;3.83;;
44516;SDS011;30223;17.182;-96.766;2023-04-25T05:36:03;5.00;;;3.40;;
44516;SDS011;30223;17.182;-96.766;2023-04-25T05:38:30;5.68;;;4.25;;
44516;SDS011;30223;17.182;-96.766;2023-04-25T05:40:57;4.85;;;3.88;;
44516;SDS011;30223;17.182;-96.766;2023-04-25T05:43:23;5.40;;;4.20;;
44516;SDS011;30223;17.182;-96.766;2023-04-25T05:45:50;4.78;;;3.78;;
44516;SDS011;30223;17.182;-96.766;2023-04-25T05:48:17;6.20;;;3.40;;
44516;SDS011;30223;17.182;-96.766;2023-04-25T05:50:44;5.57;;;3.80;;
44516;SDS011;30223;17.182;-96.766;2023-04-25T05:53:10;5.32;;;3.38;;
44516;SDS011;30223;17.182;-96.766;2023-04-25T05:55:37;3.80;;;2.97;;
44516;SDS011;30223;17.182;-96.766;2023-04-25T05:58:04;4.38;;;3.65;;
44516;SDS011;30223;17.182;-96.766;2023-04-25T06:00:32;4.53;;;3.75;;
44516;SDS011;30223;17.182;-96.766;2023-04-25T06:02:59;3.50;;;2.97;;
44516;SDS011;30223;17.182;-96.766;2023-04-25T06:05:26;4.75;;;3.38;;
44516;SDS011;30223;17.182;-96.766;2023-04-25T06:07:53;4.00;;;3.33;;
44516;SDS011;30223;17.182;-96.766;2023-04-25T06:10:20;3.25;;;2.95;;
44516;SDS011;30223;17.182;-96.766;2023-04-25T06:12:48;4.35;;;3.13;;
44516;SDS011;30223;17.182;-96.766;2023-04-25T06:15:14;3.35;;;2.72;;
44516;SDS011;30223;17.182;-96.766;2023-04-25T06:17:41;5.20;;;3.80;;
44516;SDS011;30223;17.182;-96.766;2023-04-25T06:20:08;5.35;;;3.22;;
44516;SDS011;30223;17.182;-96.766;2023-04-25T06:22:35;4.15;;;3.72;;
44516;SDS011;30223;17.182;-96.766;2023-04-25T06:25:02;4.80;;;3.30;;
44516;SDS011;30223;17.182;-96.766;2023-04-25T06:27:29;4.97;;;3.63;;
44516;SDS011;30223;17.182;-96.766;2023-04-25T06:29:56;3.67;;;2.80;;
44516;SDS011;30223;17.182;-96.766;2023-04-25T06:32:23;3.15;;;2.83;;
44516;SDS011;30223;17.182;-96.766;2023-04-25T06:34:51;4.10;;;3.70;;
44516;SDS011;30223;17.182;-96.766;2023-04-25T06:37:17;4.50;;;3.50;;
44516;SDS011;30223;17.182;-96.766;2023-04-25T06:39:45;3.28;;;2.75;;
44516;SDS011;30223;17.182;-96.766;2023-04-25T06:42:11;3.22;;;2.22;;
44516;SDS011;30223;17.182;-96.766;2023-04-25T06:44:38;3.17;;;2.83;;
44516;SDS011;30223;17.182;-96.766;2023-04-25T06:47:05;2.75;;;2.45;;
44516;SDS011;30223;17.182;-96.766;2023-04-25T06:49:32;5.65;;;3.42;;
44516;SDS011;30223;17.182;-96.766;2023-04-25T06:51:59;4.38;;;3.38;;
44516;SDS011;30223;17.182;-96.766;2023-04-25T06:54:26;3.63;;;3.10;;
44516;SDS011;30223;17.182;-96.766;2023-04-25T06:56:55;4.30;;;3.17;;
44516;SDS011;30223;17.182;-96.766;2023-04-25T06:59:22;3.78;;;3.15;;
44516;SDS011;30223;17.182;-96.766;2023-04-25T07:01:49;3.45;;;2.45;;
44516;SDS011;30223;17.182;-96.766;2023-04-25T07:04:16;3.45;;;2.80;;
44516;SDS011;30223;17.182;-96.766;2023-04-25T07:06:42;3.78;;;3.28;;
44516;SDS011;30223;17.182;-96.766;2023-04-25T07:09:12;4.57;;;3.20;;
44516;SDS011;30223;17.182;-96.766;2023-04-25T07:11:39;3.03;;;2.72;;
44516;SDS011;30223;17.182;-96.766;2023-04-25T07:14:06;3.65;;;2.72;;
44516;SDS011;30223;17.182;-96.766;2023-04-25T07:16:32;3.63;;;2.75;;
44516;SDS011;30223;17.182;-96.766;2023-04-25T07:18:59;3.60;;;3.13;;
44516;SDS011;30223;17.182;-96.766;2023-04-25T07:21:26;3.65;;;2.90;;
44516;SDS011;30223;17.182;-96.766;2023-04-25T07:23:53;4.25;;;2.58;;
44516;SDS011;30223;17.182;-96.766;2023-04-25T07:26:20;4.60;;;3.05;;
44516;SDS011;30223;17.182;-96.766;2023-04-25T07:28:46;2.85;;;2.45;;
44516;SDS011;30223;17.182;-96.766;2023-04-25T07:33:44;6.78;;;3.83;;
44516;SDS011;30223;17.182;-96.766;2023-04-25T07:36:11;3.38;;;3.08;;
44516;SDS011;30223;17.182;-96.766;2023-04-25T07:38:38;5.35;;;3.28;;
44516;SDS011;30223;17.182;-96.766;2023-04-25T07:41:05;3.80;;;2.80;;
44516;SDS011;30223;17.182;-96.766;2023-04-25T07:43:32;3.25;;;2.50;;
44516;SDS011;30223;17.182;-96.766;2023-04-25T07:46:01;3.90;;;2.95;;
44516;SDS011;30223;17.182;-96.766;2023-04-25T07:48:28;3.13;;;2.88;;
44516;SDS011;30223;17.182;-96.766;2023-04-25T07:50:55;4.68;;;3.47;;
44516;SDS011;30223;17.182;-96.766;2023-04-25T07:53:24;4.05;;;3.25;;
44516;SDS011;30223;17.182;-96.766;2023-04-25T07:55:51;3.72;;;2.72;;
44516;SDS011;30223;17.182;-96.766;2023-04-25T07:58:18;4.00;;;3.00;;
44516;SDS011;30223;17.182;-96.766;2023-04-25T08:00:47;4.15;;;3.15;;
44516;SDS011;30223;17.182;-96.766;2023-04-25T08:03:14;4.25;;;2.90;;
44516;SDS011;30223;17.182;-96.766;2023-04-25T08:05:41;3.65;;;3.35;;
44516;SDS011;30223;17.182;-96.766;2023-04-25T08:08:08;2.95;;;2.60;;
44516;SDS011;30223;17.182;-96.766;2023-04-25T08:10:34;3.15;;;2.80;;
44516;SDS011;30223;17.182;-96.766;2023-04-25T08:13:01;3.78;;;2.50;;
44516;SDS011;30223;17.182;-96.766;2023-04-25T08:15:28;4.32;;;3.10;;
44516;SDS011;30223;17.182;-96.766;2023-04-25T08:17:55;3.40;;;2.90;;
44516;SDS011;30223;17.182;-96.766;2023-04-25T08:20:21;3.53;;;3.22;;
44516;SDS011;30223;17.182;-96.766;2023-04-25T08:22:48;5.30;;;3.83;;
44516;SDS011;30223;17.182;-96.766;2023-04-25T08:25:15;3.22;;;2.78;;
44516;SDS011;30223;17.182;-96.766;2023-04-25T08:27:43;3.58;;;2.38;;
44516;SDS011;30223;17.182;-96.766;2023-04-25T08:30:12;3.08;;;2.33;;
44516;SDS011;30223;17.182;-96.766;2023-04-25T08:32:39;4.97;;;2.95;;
44516;SDS011;30223;17.182;-96.766;2023-04-25T08:35:06;3.55;;;2.42;;
44516;SDS011;30223;17.182;-96.766;2023-04-25T08:37:33;6.15;;;3.28;;
44516;SDS011;30223;17.182;-96.766;2023-04-25T08:40:01;3.72;;;3.38;;
44516;SDS011;30223;17.182;-96.766;2023-04-25T08:42:32;3.92;;;2.40;;
44516;SDS011;30223;17.182;-96.766;2023-04-25T08:45:01;3.67;;;2.95;;
44516;SDS011;30223;17.182;-96.766;2023-04-25T08:47:29;4.97;;;3.00;;
44516;SDS011;30223;17.182;-96.766;2023-04-25T08:50:00;3.90;;;3.33;;
44516;SDS011;30223;17.182;-96.766;2023-04-25T08:52:32;3.47;;;2.63;;
44516;SDS011;30223;17.182;-96.766;2023-04-25T08:55:02;4.18;;;2.75;;
44516;SDS011;30223;17.182;-96.766;2023-04-25T08:57:33;2.83;;;2.47;;
44516;SDS011;30223;17.182;-96.766;2023-04-25T09:00:01;4.13;;;2.70;;
44516;SDS011;30223;17.182;-96.766;2023-04-25T09:02:29;4.15;;;2.63;;
44516;SDS011;30223;17.182;-96.766;2023-04-25T09:04:56;3.58;;;2.92;;
44516;SDS011;30223;17.182;-96.766;2023-04-25T09:07:23;3.05;;;2.10;;
44516;SDS011;30223;17.182;-96.766;2023-04-25T09:09:51;3.20;;;2.42;;
44516;SDS011;30223;17.182;-96.766;2023-04-25T09:12:18;3.80;;;2.40;;
44516;SDS011;30223;17.182;-96.766;2023-04-25T09:15:01;3.35;;;2.25;;
44516;SDS011;30223;17.182;-96.766;2023-04-25T09:17:29;2.85;;;2.42;;
44516;SDS011;30223;17.182;-96.766;2023-04-25T09:20:05;3.15;;;2.40;;
44516;SDS011;30223;17.182;-96.766;2023-04-25T09:22:34;2.83;;;2.38;;
44516;SDS011;30223;17.182;-96.766;2023-04-25T09:25:08;4.07;;;2.42;;
44516;SDS011;30223;17.182;-96.766;2023-04-25T09:27:51;3.72;;;2.55;;
44516;SDS011;30223;17.182;-96.766;2023-04-25T09:30:28;4.50;;;2.72;;
44516;SDS011;30223;17.182;-96.766;2023-04-25T09:33:05;2.75;;;2.20;;
44516;SDS011;30223;17.182;-96.766;2023-04-25T09:35:37;4.13;;;2.58;;
44516;SDS011;30223;17.182;-96.766;2023-04-25T09:38:09;3.42;;;3.13;;
44516;SDS011;30223;17.182;-96.766;2023-04-25T09:40:42;3.75;;;2.35;;
44516;SDS011;30223;17.182;-96.766;2023-04-25T09:43:19;2.80;;;2.38;;
44516;SDS011;30223;17.182;-96.766;2023-04-25T09:45:47;3.67;;;2.30;;
44516;SDS011;30223;17.182;-96.766;2023-04-25T09:48:17;2.83;;;2.53;;
44516;SDS011;30223;17.182;-96.766;2023-04-25T09:51:21;2.80;;;2.15;;
44516;SDS011;30223;17.182;-96.766;2023-04-25T09:53:42;3.15;;;2.58;;
44516;SDS011;30223;17.182;-96.766;2023-04-25T09:56:12;3.10;;;2.38;;
44516;SDS011;30223;17.182;-96.766;2023-04-25T09:58:39;2.80;;;2.47;;
44516;SDS011;30223;17.182;-96.766;2023-04-25T10:01:07;2.97;;;2.17;;
44516;SDS011;30223;17.182;-96.766;2023-04-25T10:03:39;3.45;;;2.70;;
44516;SDS011;30223;17.182;-96.766;2023-04-25T10:06:07;3.28;;;2.28;;
44516;SDS011;30223;17.182;-96.766;2023-04-25T10:08:38;2.60;;;2.40;;
44516;SDS011;30223;17.182;-96.766;2023-04-25T10:11:06;2.83;;;2.05;;
44516;SDS011;30223;17.182;-96.766;2023-04-25T10:13:34;3.80;;;2.70;;
44516;SDS011;30223;17.182;-96.766;2023-04-25T10:16:02;2.97;;;2.40;;
44516;SDS011;30223;17.182;-96.766;2023-04-25T10:18:31;3.85;;;2.63;;
44516;SDS011;30223;17.182;-96.766;2023-04-25T10:21:00;3.75;;;3.10;;
44516;SDS011;30223;17.182;-96.766;2023-04-25T10:23:29;2.20;;;2.00;;
44516;SDS011;30223;17.182;-96.766;2023-04-25T10:25:57;2.97;;;2.40;;
44516;SDS011;30223;17.182;-96.766;2023-04-25T10:28:25;3.15;;;1.98;;
44516;SDS011;30223;17.182;-96.766;2023-04-25T10:30:58;2.45;;;2.05;;
44516;SDS011;30223;17.182;-96.766;2023-04-25T10:33:33;4.07;;;2.70;;
44516;SDS011;30223;17.182;-96.766;2023-04-25T10:36:11;3.13;;;2.17;;
44516;SDS011;30223;17.182;-96.766;2023-04-25T10:38:39;2.95;;;1.88;;
44516;SDS011;30223;17.182;-96.766;2023-04-25T10:41:08;3.05;;;2.22;;
44516;SDS011;30223;17.182;-96.766;2023-04-25T10:43:37;4.70;;;3.25;;
44516;SDS011;30223;17.182;-96.766;2023-04-25T10:46:27;3.97;;;2.42;;
44516;SDS011;30223;17.182;-96.766;2023-04-25T10:48:58;3.40;;;2.28;;
44516;SDS011;30223;17.182;-96.766;2023-04-25T10:51:29;2.70;;;2.50;;
44516;SDS011;30223;17.182;-96.766;2023-04-25T10:56:28;3.67;;;3.22;;
44516;SDS011;30223;17.182;-96.766;2023-04-25T11:01:42;3.00;;;2.33;;
44516;SDS011;30223;17.182;-96.766;2023-04-25T11:04:30;3.70;;;2.42;;
44516;SDS011;30223;17.182;-96.766;2023-04-25T11:09:45;2.45;;;2.13;;
44516;SDS011;30223;17.182;-96.766;2023-04-25T11:12:12;2.97;;;2.15;;
44516;SDS011;30223;17.182;-96.766;2023-04-25T11:14:40;3.50;;;2.65;;
44516;SDS011;30223;17.182;-96.766;2023-04-25T11:17:07;2.67;;;2.17;;
44516;SDS011;30223;17.182;-96.766;2023-04-25T11:19:35;2.72;;;2.33;;
44516;SDS011;30223;17.182;-96.766;2023-04-25T11:22:02;2.67;;;2.35;;
44516;SDS011;30223;17.182;-96.766;2023-04-25T11:24:31;2.92;;;1.83;;
44516;SDS011;30223;17.182;-96.766;2023-04-25T11:27:00;3.72;;;2.35;;
44516;SDS011;30223;17.182;-96.766;2023-04-25T11:29:29;3.03;;;2.25;;
44516;SDS011;30223;17.182;-96.766;2023-04-25T11:31:57;3.47;;;2.47;;
44516;SDS011;30223;17.182;-96.766;2023-04-25T11:34:26;4.45;;;2.35;;
44516;SDS011;30223;17.182;-96.766;2023-04-25T11:36:57;4.53;;;3.17;;
44516;SDS011;30223;17.182;-96.766;2023-04-25T11:39:25;4.25;;;2.45;;
44516;SDS011;30223;17.182;-96.766;2023-04-25T11:41:52;2.17;;;1.95;;
44516;SDS011;30223;17.182;-96.766;2023-04-25T11:44:19;2.53;;;2.28;;
44516;SDS011;30223;17.182;-96.766;2023-04-25T11:46:47;3.00;;;2.22;;
44516;SDS011;30223;17.182;-96.766;2023-04-25T11:49:14;2.83;;;1.75;;
44516;SDS011;30223;17.182;-96.766;2023-04-25T11:51:44;3.25;;;2.30;;
44516;SDS011;30223;17.182;-96.766;2023-04-25T11:54:12;3.03;;;2.25;;
44516;SDS011;30223;17.182;-96.766;2023-04-25T11:56:43;3.35;;;2.63;;
44516;SDS011;30223;17.182;-96.766;2023-04-25T11:59:11;5.10;;;2.92;;
44516;SDS011;30223;17.182;-96.766;2023-04-25T12:01:39;2.67;;;2.17;;
44516;SDS011;30223;17.182;-96.766;2023-04-25T12:04:11;2.40;;;2.05;;
44516;SDS011;30223;17.182;-96.766;2023-04-25T12:06:39;2.08;;;1.80;;
44516;SDS011;30223;17.182;-96.766;2023-04-25T12:09:07;4.03;;;2.25;;
44516;SDS011;30223;17.182;-96.766;2023-04-25T12:11:45;3.50;;;2.55;;
44516;SDS011;30223;17.182;-96.766;2023-04-25T12:14:23;2.53;;;1.80;;
44516;SDS011;30223;17.182;-96.766;2023-04-25T12:16:52;3.33;;;2.42;;
44516;SDS011;30223;17.182;-96.766;2023-04-25T12:19:22;2.83;;;2.15;;
44516;SDS011;30223;17.182;-96.766;2023-04-25T12:21:49;3.47;;;2.13;;
44516;SDS011;30223;17.182;-96.766;2023-04-25T12:24:23;3.45;;;3.15;;
44516;SDS011;30223;17.182;-96.766;2023-04-25T12:26:52;2.55;;;2.20;;
44516;SDS011;30223;17.182;-96.766;2023-04-25T12:29:25;3.20;;;2.55;;
44516;SDS011;30223;17.182;-96.766;2023-04-25T12:31:55;4.22;;;2.40;;
44516;SDS011;30223;17.182;-96.766;2023-04-25T12:34:22;2.55;;;2.25;;
44516;SDS011;30223;17.182;-96.766;2023-04-25T12:36:51;3.53;;;2.47;;
44516;SDS011;30223;17.182;-96.766;2023-04-25T12:39:19;5.43;;;3.55;;
44516;SDS011;30223;17.182;-96.766;2023-04-25T12:41:49;2.53;;;2.25;;
44516;SDS011;30223;17.182;-96.766;2023-04-25T12:44:20;2.88;;;2.00;;
44516;SDS011;30223;17.182;-96.766;2023-04-25T12:46:47;3.13;;;2.25;;
44516;SDS011;30223;17.182;-96.766;2023-04-25T12:49:15;3.20;;;2.35;;
44516;SDS011;30223;17.182;-96.766;2023-04-25T12:51:42;2.78;;;2.40;;
44516;SDS011;30223;17.182;-96.766;2023-04-25T12:54:08;3.97;;;2.50;;
44516;SDS011;30223;17.182;-96.766;2023-04-25T12:56:35;2.70;;;2.42;;
44516;SDS011;30223;17.182;-96.766;2023-04-25T12:59:02;3.50;;;2.20;;
44516;SDS011;30223;17.182;-96.766;2023-04-25T13:01:29;3.58;;;1.95;;
44516;SDS011;30223;17.182;-96.766;2023-04-25T13:03:57;3.60;;;2.40;;
44516;SDS011;30223;17.182;-96.766;2023-04-25T13:06:23;3.17;;;2.20;;
44516;SDS011;30223;17.182;-96.766;2023-04-25T13:08:51;4.13;;;2.63;;
44516;SDS011;30223;17.182;-96.766;2023-04-25T13:11:18;3.53;;;2.00;;
44516;SDS011;30223;17.182;-96.766;2023-04-25T13:13:45;3.17;;;2.28;;
44516;SDS011;30223;17.182;-96.766;2023-04-25T13:16:12;4.00;;;2.35;;
44516;SDS011;30223;17.182;-96.766;2023-04-25T13:18:39;2.92;;;2.33;;
44516;SDS011;30223;17.182;-96.766;2023-04-25T13:21:06;4.13;;;2.60;;
44516;SDS011;30223;17.182;-96.766;2023-04-25T13:23:35;1.85;;;1.73;;
44516;SDS011;30223;17.182;-96.766;2023-04-25T13:26:02;3.80;;;2.30;;
44516;SDS011;30223;17.182;-96.766;2023-04-25T13:28:29;3.63;;;1.80;;
44516;SDS011;30223;17.182;-96.766;2023-04-25T13:30:56;3.85;;;2.28;;
44516;SDS011;30223;17.182;-96.766;2023-04-25T13:33:23;3.95;;;2.92;;
44516;SDS011;30223;17.182;-96.766;2023-04-25T13:35:51;3.75;;;2.35;;
44516;SDS011;30223;17.182;-96.766;2023-04-25T13:38:22;2.97;;;2.22;;
44516;SDS011;30223;17.182;-96.766;2023-04-25T13:40:51;8.00;;;2.17;;
44516;SDS011;30223;17.182;-96.766;2023-04-25T13:43:19;3.35;;;2.80;;
44516;SDS011;30223;17.182;-96.766;2023-04-25T13:45:48;4.10;;;2.33;;
44516;SDS011;30223;17.182;-96.766;2023-04-25T13:48:15;3.55;;;2.55;;
44516;SDS011;30223;17.182;-96.766;2023-04-25T13:50:42;3.13;;;2.28;;
44516;SDS011;30223;17.182;-96.766;2023-04-25T13:53:08;3.20;;;2.53;;
44516;SDS011;30223;17.182;-96.766;2023-04-25T13:55:35;2.38;;;2.13;;
44516;SDS011;30223;17.182;-96.766;2023-04-25T13:58:02;3.38;;;2.38;;
44516;SDS011;30223;17.182;-96.766;2023-04-25T14:00:35;2.90;;;2.55;;
44516;SDS011;30223;17.182;-96.766;2023-04-25T14:03:04;4.18;;;2.85;;
44516;SDS011;30223;17.182;-96.766;2023-04-25T14:05:32;3.23;;;2.30;;
44516;SDS011;30223;17.182;-96.766;2023-04-25T14:08:04;3.42;;;2.35;;
44516;SDS011;30223;17.182;-96.766;2023-04-25T14:10:35;2.60;;;2.05;;
44516;SDS011;30223;17.182;-96.766;2023-04-25T14:13:02;2.88;;;2.15;;
44516;SDS011;30223;17.182;-96.766;2023-04-25T14:15:31;4.20;;;2.50;;
44516;SDS011;30223;17.182;-96.766;2023-04-25T14:17:58;5.25;;;2.80;;
44516;SDS011;30223;17.182;-96.766;2023-04-25T14:20:26;2.92;;;2.28;;
44516;SDS011;30223;17.182;-96.766;2023-04-25T14:22:52;3.72;;;2.47;;
44516;SDS011;30223;17.182;-96.766;2023-04-25T14:25:21;2.93;;;2.07;;
44516;SDS011;30223;17.182;-96.766;2023-04-25T14:27:49;3.60;;;3.08;;
44516;SDS011;30223;17.182;-96.766;2023-04-25T14:30:16;2.53;;;2.13;;
44516;SDS011;30223;17.182;-96.766;2023-04-25T14:32:44;2.50;;;1.65;;
44516;SDS011;30223;17.182;-96.766;2023-04-25T14:35:11;2.53;;;2.22;;
44516;SDS011;30223;17.182;-96.766;2023-04-25T14:37:38;1.85;;;1.65;;